Terminal Aerodrome Forecast
Issued by NWS

Home | Current Version | Previous Version | Text Only | Print | Product List | Glossary On
Versions: 1 2 3 4 5 6 7 8 9 10 11 12 13
000
FTUS46 KMTR 072340
TAFOAK
TAF
KOAK 072340Z 0800/0906 28015KT P6SM FEW017 SCT250
     FM080300 28010KT P6SM SCT015 BKN250
      TEMPO 0804/0808 BKN015
     FM080800 28007KT P6SM BKN012 OVC250
     FM081800 26008KT P6SM FEW015 SCT250
     FM082000 28014G19KT P6SM FEW020 SCT250
     FM090300 28009KT P6SM FEW250=

USA.gov is the U.S. government's official web portal to all federal, state and local government web resources and services.